sensor_id;sensor_type;location;lat;lon;timestamp;P1;durP1;ratioP1;P2;durP2;ratioP2
12308;SDS011;6217;48.150;17.142;2023-04-06T00:00:53;7.47;;;3.50;;
12308;SDS011;6217;48.150;17.142;2023-04-06T00:04:59;4.25;;;2.67;;
12308;SDS011;6217;48.150;17.142;2023-04-06T00:09:05;3.80;;;2.20;;
12308;SDS011;6217;48.150;17.142;2023-04-06T00:13:11;6.30;;;2.70;;
12308;SDS011;6217;48.150;17.142;2023-04-06T00:17:17;3.47;;;2.45;;
12308;SDS011;6217;48.150;17.142;2023-04-06T00:21:23;6.50;;;2.85;;
12308;SDS011;6217;48.150;17.142;2023-04-06T00:25:30;4.10;;;2.47;;
12308;SDS011;6217;48.150;17.142;2023-04-06T00:29:36;4.07;;;2.45;;
12308;SDS011;6217;48.150;17.142;2023-04-06T00:33:43;4.32;;;2.78;;
12308;SDS011;6217;48.150;17.142;2023-04-06T00:37:49;3.90;;;2.50;;
12308;SDS011;6217;48.150;17.142;2023-04-06T00:41:55;6.97;;;4.07;;
12308;SDS011;6217;48.150;17.142;2023-04-06T00:46:02;6.10;;;2.40;;
12308;SDS011;6217;48.150;17.142;2023-04-06T00:50:08;4.55;;;2.85;;
12308;SDS011;6217;48.150;17.142;2023-04-06T00:54:14;6.10;;;2.95;;
12308;SDS011;6217;48.150;17.142;2023-04-06T00:58:21;6.15;;;2.90;;
12308;SDS011;6217;48.150;17.142;2023-04-06T01:02:32;4.45;;;2.55;;
12308;SDS011;6217;48.150;17.142;2023-04-06T01:06:39;4.03;;;2.75;;
12308;SDS011;6217;48.150;17.142;2023-04-06T01:10:46;6.07;;;3.22;;
12308;SDS011;6217;48.150;17.142;2023-04-06T01:15:02;5.85;;;2.80;;
12308;SDS011;6217;48.150;17.142;2023-04-06T01:19:12;8.20;;;4.03;;
12308;SDS011;6217;48.150;17.142;2023-04-06T01:23:24;7.68;;;2.83;;
12308;SDS011;6217;48.150;17.142;2023-04-06T01:27:30;5.53;;;2.47;;
12308;SDS011;6217;48.150;17.142;2023-04-06T01:36:13;5.72;;;3.00;;
12308;SDS011;6217;48.150;17.142;2023-04-06T01:40:20;5.53;;;3.33;;
12308;SDS011;6217;48.150;17.142;2023-04-06T01:44:29;7.63;;;2.75;;
12308;SDS011;6217;48.150;17.142;2023-04-06T01:48:46;6.45;;;3.35;;
12308;SDS011;6217;48.150;17.142;2023-04-06T01:53:08;8.77;;;4.07;;
12308;SDS011;6217;48.150;17.142;2023-04-06T01:57:15;6.70;;;2.92;;
12308;SDS011;6217;48.150;17.142;2023-04-06T02:01:26;7.80;;;2.97;;
12308;SDS011;6217;48.150;17.142;2023-04-06T02:05:35;6.78;;;3.05;;
12308;SDS011;6217;48.150;17.142;2023-04-06T02:09:54;5.85;;;3.00;;
12308;SDS011;6217;48.150;17.142;2023-04-06T02:14:05;8.27;;;2.75;;
12308;SDS011;6217;48.150;17.142;2023-04-06T02:18:16;6.28;;;3.47;;
12308;SDS011;6217;48.150;17.142;2023-04-06T02:22:23;6.10;;;3.10;;
12308;SDS011;6217;48.150;17.142;2023-04-06T02:26:29;6.60;;;3.20;;
12308;SDS011;6217;48.150;17.142;2023-04-06T02:30:35;5.95;;;3.15;;
12308;SDS011;6217;48.150;17.142;2023-04-06T02:34:42;7.47;;;3.30;;
12308;SDS011;6217;48.150;17.142;2023-04-06T02:38:49;6.97;;;3.50;;
12308;SDS011;6217;48.150;17.142;2023-04-06T02:42:56;4.88;;;2.75;;
12308;SDS011;6217;48.150;17.142;2023-04-06T02:47:07;8.88;;;3.92;;
12308;SDS011;6217;48.150;17.142;2023-04-06T02:51:14;10.50;;;4.00;;
12308;SDS011;6217;48.150;17.142;2023-04-06T02:55:26;5.40;;;3.30;;
12308;SDS011;6217;48.150;17.142;2023-04-06T02:59:32;7.32;;;3.50;;
12308;SDS011;6217;48.150;17.142;2023-04-06T03:03:48;7.20;;;4.00;;
12308;SDS011;6217;48.150;17.142;2023-04-06T03:08:01;10.63;;;4.43;;
12308;SDS011;6217;48.150;17.142;2023-04-06T03:12:19;8.25;;;3.85;;
12308;SDS011;6217;48.150;17.142;2023-04-06T03:16:55;6.95;;;3.47;;
12308;SDS011;6217;48.150;17.142;2023-04-06T03:21:03;6.53;;;3.22;;
12308;SDS011;6217;48.150;17.142;2023-04-06T03:25:35;4.60;;;2.80;;
12308;SDS011;6217;48.150;17.142;2023-04-06T03:29:44;7.82;;;3.53;;
12308;SDS011;6217;48.150;17.142;2023-04-06T03:33:54;7.75;;;3.72;;
12308;SDS011;6217;48.150;17.142;2023-04-06T03:38:11;8.30;;;3.83;;
12308;SDS011;6217;48.150;17.142;2023-04-06T03:42:18;6.30;;;3.45;;
12308;SDS011;6217;48.150;17.142;2023-04-06T03:46:29;7.35;;;3.75;;
12308;SDS011;6217;48.150;17.142;2023-04-06T03:50:37;7.07;;;3.35;;
12308;SDS011;6217;48.150;17.142;2023-04-06T03:54:44;8.25;;;5.13;;
12308;SDS011;6217;48.150;17.142;2023-04-06T03:58:50;6.60;;;3.03;;
12308;SDS011;6217;48.150;17.142;2023-04-06T04:02:59;7.28;;;3.78;;
12308;SDS011;6217;48.150;17.142;2023-04-06T04:07:07;7.50;;;3.58;;
12308;SDS011;6217;48.150;17.142;2023-04-06T04:11:13;5.70;;;3.50;;
12308;SDS011;6217;48.150;17.142;2023-04-06T04:15:21;6.63;;;3.10;;
12308;SDS011;6217;48.150;17.142;2023-04-06T04:19:27;5.63;;;3.20;;
12308;SDS011;6217;48.150;17.142;2023-04-06T04:23:34;9.85;;;4.15;;
12308;SDS011;6217;48.150;17.142;2023-04-06T04:27:40;7.70;;;3.97;;
12308;SDS011;6217;48.150;17.142;2023-04-06T04:31:46;7.72;;;3.85;;
12308;SDS011;6217;48.150;17.142;2023-04-06T04:35:56;7.28;;;4.07;;
12308;SDS011;6217;48.150;17.142;2023-04-06T04:40:05;8.75;;;5.10;;
12308;SDS011;6217;48.150;17.142;2023-04-06T04:44:22;7.32;;;4.65;;
12308;SDS011;6217;48.150;17.142;2023-04-06T04:48:29;5.68;;;3.90;;
12308;SDS011;6217;48.150;17.142;2023-04-06T04:52:39;5.22;;;3.28;;
12308;SDS011;6217;48.150;17.142;2023-04-06T04:56:54;6.95;;;4.43;;
12308;SDS011;6217;48.150;17.142;2023-04-06T05:01:07;7.68;;;3.15;;
12308;SDS011;6217;48.150;17.142;2023-04-06T05:05:14;5.80;;;3.15;;
12308;SDS011;6217;48.150;17.142;2023-04-06T05:09:21;5.28;;;3.60;;
12308;SDS011;6217;48.150;17.142;2023-04-06T05:13:27;7.28;;;3.80;;
12308;SDS011;6217;48.150;17.142;2023-04-06T05:17:34;8.43;;;5.38;;
12308;SDS011;6217;48.150;17.142;2023-04-06T05:21:41;11.20;;;5.07;;
12308;SDS011;6217;48.150;17.142;2023-04-06T05:25:48;8.07;;;4.40;;
12308;SDS011;6217;48.150;17.142;2023-04-06T05:30:00;8.57;;;4.70;;
12308;SDS011;6217;48.150;17.142;2023-04-06T05:34:09;7.82;;;4.55;;
12308;SDS011;6217;48.150;17.142;2023-04-06T05:38:16;5.80;;;3.70;;
12308;SDS011;6217;48.150;17.142;2023-04-06T05:42:22;7.75;;;3.90;;
12308;SDS011;6217;48.150;17.142;2023-04-06T05:46:37;9.02;;;4.40;;
12308;SDS011;6217;48.150;17.142;2023-04-06T05:50:47;6.68;;;3.47;;
12308;SDS011;6217;48.150;17.142;2023-04-06T05:54:57;8.77;;;5.93;;
12308;SDS011;6217;48.150;17.142;2023-04-06T05:59:04;5.65;;;3.95;;
12308;SDS011;6217;48.150;17.142;2023-04-06T06:03:11;6.20;;;4.00;;
12308;SDS011;6217;48.150;17.142;2023-04-06T06:07:22;5.28;;;4.78;;
12308;SDS011;6217;48.150;17.142;2023-04-06T06:11:36;6.65;;;5.22;;
12308;SDS011;6217;48.150;17.142;2023-04-06T06:15:43;6.07;;;5.47;;
12308;SDS011;6217;48.150;17.142;2023-04-06T06:19:49;5.60;;;4.05;;
12308;SDS011;6217;48.150;17.142;2023-04-06T06:23:56;6.75;;;4.75;;
12308;SDS011;6217;48.150;17.142;2023-04-06T06:28:03;6.22;;;4.28;;
12308;SDS011;6217;48.150;17.142;2023-04-06T06:32:10;6.00;;;4.88;;
12308;SDS011;6217;48.150;17.142;2023-04-06T06:36:17;6.15;;;4.68;;
12308;SDS011;6217;48.150;17.142;2023-04-06T06:40:24;4.85;;;3.47;;
12308;SDS011;6217;48.150;17.142;2023-04-06T06:44:33;5.75;;;4.70;;
12308;SDS011;6217;48.150;17.142;2023-04-06T06:48:39;5.53;;;3.97;;
12308;SDS011;6217;48.150;17.142;2023-04-06T06:52:45;7.05;;;4.35;;
12308;SDS011;6217;48.150;17.142;2023-04-06T06:56:51;7.15;;;4.55;;
12308;SDS011;6217;48.150;17.142;2023-04-06T07:00:58;11.15;;;5.93;;
12308;SDS011;6217;48.150;17.142;2023-04-06T07:05:05;7.38;;;5.35;;
12308;SDS011;6217;48.150;17.142;2023-04-06T07:09:12;5.55;;;4.25;;
12308;SDS011;6217;48.150;17.142;2023-04-06T07:13:19;8.38;;;4.53;;
12308;SDS011;6217;48.150;17.142;2023-04-06T07:17:29;5.28;;;4.50;;
12308;SDS011;6217;48.150;17.142;2023-04-06T07:21:35;9.55;;;5.75;;
12308;SDS011;6217;48.150;17.142;2023-04-06T07:25:41;7.90;;;4.35;;
12308;SDS011;6217;48.150;17.142;2023-04-06T07:29:49;6.85;;;5.03;;
12308;SDS011;6217;48.150;17.142;2023-04-06T07:33:55;9.95;;;6.22;;
12308;SDS011;6217;48.150;17.142;2023-04-06T07:38:01;8.05;;;5.15;;
12308;SDS011;6217;48.150;17.142;2023-04-06T07:42:08;8.70;;;5.50;;
12308;SDS011;6217;48.150;17.142;2023-04-06T07:46:14;7.90;;;5.30;;
12308;SDS011;6217;48.150;17.142;2023-04-06T07:50:20;12.30;;;5.07;;
12308;SDS011;6217;48.150;17.142;2023-04-06T07:54:26;9.90;;;5.90;;
12308;SDS011;6217;48.150;17.142;2023-04-06T07:58:32;5.35;;;4.70;;
12308;SDS011;6217;48.150;17.142;2023-04-06T08:02:38;12.57;;;5.47;;
12308;SDS011;6217;48.150;17.142;2023-04-06T08:06:44;10.82;;;5.85;;
12308;SDS011;6217;48.150;17.142;2023-04-06T08:10:50;8.13;;;5.57;;
12308;SDS011;6217;48.150;17.142;2023-04-06T08:14:56;5.55;;;3.83;;
12308;SDS011;6217;48.150;17.142;2023-04-06T08:19:02;8.65;;;5.00;;
12308;SDS011;6217;48.150;17.142;2023-04-06T08:23:09;6.35;;;5.13;;
12308;SDS011;6217;48.150;17.142;2023-04-06T08:27:16;5.55;;;4.22;;
12308;SDS011;6217;48.150;17.142;2023-04-06T08:31:22;7.97;;;4.25;;
12308;SDS011;6217;48.150;17.142;2023-04-06T08:35:28;5.28;;;3.35;;
12308;SDS011;6217;48.150;17.142;2023-04-06T08:39:34;4.50;;;3.22;;
12308;SDS011;6217;48.150;17.142;2023-04-06T08:43:44;6.22;;;3.58;;
12308;SDS011;6217;48.150;17.142;2023-04-06T08:47:55;6.95;;;3.97;;
12308;SDS011;6217;48.150;17.142;2023-04-06T08:52:07;5.82;;;3.92;;
12308;SDS011;6217;48.150;17.142;2023-04-06T08:56:13;5.22;;;2.88;;
12308;SDS011;6217;48.150;17.142;2023-04-06T09:00:19;3.42;;;2.65;;
12308;SDS011;6217;48.150;17.142;2023-04-06T09:04:26;5.68;;;3.00;;
12308;SDS011;6217;48.150;17.142;2023-04-06T09:08:35;4.10;;;2.50;;
12308;SDS011;6217;48.150;17.142;2023-04-06T09:12:44;3.92;;;2.42;;
12308;SDS011;6217;48.150;17.142;2023-04-06T09:16:50;4.57;;;2.75;;
12308;SDS011;6217;48.150;17.142;2023-04-06T09:20:57;6.93;;;2.47;;
12308;SDS011;6217;48.150;17.142;2023-04-06T09:25:17;4.13;;;2.08;;
12308;SDS011;6217;48.150;17.142;2023-04-06T09:29:25;6.40;;;2.40;;
12308;SDS011;6217;48.150;17.142;2023-04-06T09:33:31;5.60;;;2.20;;
12308;SDS011;6217;48.150;17.142;2023-04-06T09:37:38;7.78;;;2.40;;
12308;SDS011;6217;48.150;17.142;2023-04-06T09:41:48;4.00;;;2.38;;
12308;SDS011;6217;48.150;17.142;2023-04-06T09:45:56;3.65;;;2.83;;
12308;SDS011;6217;48.150;17.142;2023-04-06T09:50:03;4.88;;;1.95;;
12308;SDS011;6217;48.150;17.142;2023-04-06T09:54:10;3.88;;;1.92;;
12308;SDS011;6217;48.150;17.142;2023-04-06T09:58:21;4.70;;;2.33;;
12308;SDS011;6217;48.150;17.142;2023-04-06T10:06:59;4.28;;;2.28;;
12308;SDS011;6217;48.150;17.142;2023-04-06T10:11:07;5.13;;;2.20;;
12308;SDS011;6217;48.150;17.142;2023-04-06T10:15:16;3.83;;;1.92;;
12308;SDS011;6217;48.150;17.142;2023-04-06T10:19:24;4.80;;;1.80;;
12308;SDS011;6217;48.150;17.142;2023-04-06T10:23:46;4.53;;;1.80;;
12308;SDS011;6217;48.150;17.142;2023-04-06T10:28:00;3.78;;;1.80;;
12308;SDS011;6217;48.150;17.142;2023-04-06T10:32:14;6.07;;;1.95;;
12308;SDS011;6217;48.150;17.142;2023-04-06T10:36:26;3.20;;;1.50;;
12308;SDS011;6217;48.150;17.142;2023-04-06T10:40:39;3.67;;;2.08;;
12308;SDS011;6217;48.150;17.142;2023-04-06T10:44:49;5.22;;;1.98;;
12308;SDS011;6217;48.150;17.142;2023-04-06T10:48:55;3.80;;;2.42;;
12308;SDS011;6217;48.150;17.142;2023-04-06T10:53:02;2.25;;;1.58;;
12308;SDS011;6217;48.150;17.142;2023-04-06T10:57:08;4.53;;;2.33;;
12308;SDS011;6217;48.150;17.142;2023-04-06T11:01:15;5.65;;;2.97;;
12308;SDS011;6217;48.150;17.142;2023-04-06T11:05:23;4.15;;;2.45;;
12308;SDS011;6217;48.150;17.142;2023-04-06T11:09:29;3.58;;;2.00;;
12308;SDS011;6217;48.150;17.142;2023-04-06T11:13:37;4.15;;;2.20;;
12308;SDS011;6217;48.150;17.142;2023-04-06T11:17:48;4.40;;;2.47;;
12308;SDS011;6217;48.150;17.142;2023-04-06T11:21:54;4.45;;;1.88;;
12308;SDS011;6217;48.150;17.142;2023-04-06T11:26:00;2.00;;;1.80;;
12308;SDS011;6217;48.150;17.142;2023-04-06T11:30:09;6.63;;;2.28;;
12308;SDS011;6217;48.150;17.142;2023-04-06T11:34:16;5.88;;;2.42;;
12308;SDS011;6217;48.150;17.142;2023-04-06T11:38:27;5.35;;;2.05;;
12308;SDS011;6217;48.150;17.142;2023-04-06T11:42:34;4.80;;;1.58;;
12308;SDS011;6217;48.150;17.142;2023-04-06T11:46:40;5.07;;;2.00;;
12308;SDS011;6217;48.150;17.142;2023-04-06T11:50:57;6.05;;;1.88;;
12308;SDS011;6217;48.150;17.142;2023-04-06T11:55:13;3.47;;;1.60;;
12308;SDS011;6217;48.150;17.142;2023-04-06T11:59:21;3.30;;;1.77;;
12308;SDS011;6217;48.150;17.142;2023-04-06T12:03:28;2.85;;;1.60;;
12308;SDS011;6217;48.150;17.142;2023-04-06T12:07:33;2.65;;;1.60;;
12308;SDS011;6217;48.150;17.142;2023-04-06T12:11:39;3.50;;;1.60;;
12308;SDS011;6217;48.150;17.142;2023-04-06T12:15:46;2.38;;;1.50;;
12308;SDS011;6217;48.150;17.142;2023-04-06T12:19:52;2.50;;;1.50;;
12308;SDS011;6217;48.150;17.142;2023-04-06T12:23:58;4.97;;;1.75;;
12308;SDS011;6217;48.150;17.142;2023-04-06T12:28:04;2.78;;;1.90;;
12308;SDS011;6217;48.150;17.142;2023-04-06T12:32:10;2.20;;;1.67;;
12308;SDS011;6217;48.150;17.142;2023-04-06T12:36:18;3.90;;;1.80;;
12308;SDS011;6217;48.150;17.142;2023-04-06T12:40:25;6.40;;;2.38;;
12308;SDS011;6217;48.150;17.142;2023-04-06T12:44:31;4.85;;;2.28;;
12308;SDS011;6217;48.150;17.142;2023-04-06T12:48:37;3.22;;;1.90;;
12308;SDS011;6217;48.150;17.142;2023-04-06T12:52:43;2.58;;;1.60;;
12308;SDS011;6217;48.150;17.142;2023-04-06T12:56:49;3.88;;;1.80;;
12308;SDS011;6217;48.150;17.142;2023-04-06T13:00:55;5.70;;;2.22;;
12308;SDS011;6217;48.150;17.142;2023-04-06T13:05:07;3.88;;;2.03;;
12308;SDS011;6217;48.150;17.142;2023-04-06T13:09:14;2.13;;;1.83;;
12308;SDS011;6217;48.150;17.142;2023-04-06T13:13:23;2.05;;;1.40;;
12308;SDS011;6217;48.150;17.142;2023-04-06T13:17:31;2.45;;;1.73;;
12308;SDS011;6217;48.150;17.142;2023-04-06T13:21:37;3.67;;;1.70;;
12308;SDS011;6217;48.150;17.142;2023-04-06T13:25:44;3.05;;;1.85;;
12308;SDS011;6217;48.150;17.142;2023-04-06T13:29:50;6.68;;;1.55;;
12308;SDS011;6217;48.150;17.142;2023-04-06T13:33:56;1.70;;;1.50;;
12308;SDS011;6217;48.150;17.142;2023-04-06T13:38:02;2.55;;;1.67;;
12308;SDS011;6217;48.150;17.142;2023-04-06T13:42:08;2.60;;;1.30;;
12308;SDS011;6217;48.150;17.142;2023-04-06T13:46:15;2.28;;;1.50;;
12308;SDS011;6217;48.150;17.142;2023-04-06T13:50:21;4.07;;;2.00;;
12308;SDS011;6217;48.150;17.142;2023-04-06T13:54:27;3.55;;;2.05;;
12308;SDS011;6217;48.150;17.142;2023-04-06T13:58:33;3.05;;;1.60;;
12308;SDS011;6217;48.150;17.142;2023-04-06T14:02:41;3.35;;;1.48;;
12308;SDS011;6217;48.150;17.142;2023-04-06T14:06:47;3.83;;;1.63;;
12308;SDS011;6217;48.150;17.142;2023-04-06T14:10:53;4.93;;;1.75;;
12308;SDS011;6217;48.150;17.142;2023-04-06T14:15:00;1.80;;;1.42;;
12308;SDS011;6217;48.150;17.142;2023-04-06T14:19:06;2.97;;;1.63;;
12308;SDS011;6217;48.150;17.142;2023-04-06T14:23:12;4.43;;;1.50;;
12308;SDS011;6217;48.150;17.142;2023-04-06T14:27:18;5.95;;;3.50;;
12308;SDS011;6217;48.150;17.142;2023-04-06T14:31:24;5.80;;;2.92;;
12308;SDS011;6217;48.150;17.142;2023-04-06T14:35:29;4.03;;;1.50;;
12308;SDS011;6217;48.150;17.142;2023-04-06T14:39:37;3.20;;;1.52;;
12308;SDS011;6217;48.150;17.142;2023-04-06T14:43:43;5.30;;;1.55;;
12308;SDS011;6217;48.150;17.142;2023-04-06T14:47:51;4.82;;;2.00;;
12308;SDS011;6217;48.150;17.142;2023-04-06T14:51:57;4.45;;;1.70;;
12308;SDS011;6217;48.150;17.142;2023-04-06T14:56:04;2.55;;;1.90;;
12308;SDS011;6217;48.150;17.142;2023-04-06T15:00:11;2.50;;;1.80;;
12308;SDS011;6217;48.150;17.142;2023-04-06T15:04:18;4.00;;;2.00;;
12308;SDS011;6217;48.150;17.142;2023-04-06T15:08:24;3.40;;;2.15;;
12308;SDS011;6217;48.150;17.142;2023-04-06T15:12:30;10.65;;;6.43;;
12308;SDS011;6217;48.150;17.142;2023-04-06T15:16:37;6.32;;;2.83;;
12308;SDS011;6217;48.150;17.142;2023-04-06T15:20:43;2.58;;;2.38;;
12308;SDS011;6217;48.150;17.142;2023-04-06T15:24:49;6.50;;;2.30;;
12308;SDS011;6217;48.150;17.142;2023-04-06T15:28:55;4.35;;;2.15;;
12308;SDS011;6217;48.150;17.142;2023-04-06T15:33:01;7.00;;;2.92;;
12308;SDS011;6217;48.150;17.142;2023-04-06T15:37:08;4.43;;;2.45;;
12308;SDS011;6217;48.150;17.142;2023-04-06T15:41:14;3.33;;;2.00;;
12308;SDS011;6217;48.150;17.142;2023-04-06T15:45:20;7.90;;;2.72;;
12308;SDS011;6217;48.150;17.142;2023-04-06T15:49:26;3.58;;;2.40;;
12308;SDS011;6217;48.150;17.142;2023-04-06T15:53:32;4.53;;;2.33;;
12308;SDS011;6217;48.150;17.142;2023-04-06T15:57:38;4.45;;;2.88;;
12308;SDS011;6217;48.150;17.142;2023-04-06T16:01:45;3.55;;;2.30;;
12308;SDS011;6217;48.150;17.142;2023-04-06T16:05:51;6.93;;;2.80;;
12308;SDS011;6217;48.150;17.142;2023-04-06T16:09:58;4.85;;;2.80;;
12308;SDS011;6217;48.150;17.142;2023-04-06T16:14:04;4.05;;;3.03;;
12308;SDS011;6217;48.150;17.142;2023-04-06T16:18:10;6.30;;;3.85;;
12308;SDS011;6217;48.150;17.142;2023-04-06T16:22:17;7.15;;;4.03;;
12308;SDS011;6217;48.150;17.142;2023-04-06T16:26:23;8.32;;;4.43;;
12308;SDS011;6217;48.150;17.142;2023-04-06T16:30:29;5.22;;;3.78;;
12308;SDS011;6217;48.150;17.142;2023-04-06T16:34:35;8.48;;;3.95;;
12308;SDS011;6217;48.150;17.142;2023-04-06T16:38:42;5.53;;;3.80;;
12308;SDS011;6217;48.150;17.142;2023-04-06T16:42:47;6.13;;;4.20;;
12308;SDS011;6217;48.150;17.142;2023-04-06T16:46:53;9.50;;;5.13;;
12308;SDS011;6217;48.150;17.142;2023-04-06T16:51:03;7.53;;;4.93;;
12308;SDS011;6217;48.150;17.142;2023-04-06T16:55:11;9.07;;;3.83;;
12308;SDS011;6217;48.150;17.142;2023-04-06T16:59:20;7.15;;;4.78;;
12308;SDS011;6217;48.150;17.142;2023-04-06T17:03:27;6.22;;;4.80;;
12308;SDS011;6217;48.150;17.142;2023-04-06T17:07:33;7.45;;;4.13;;
12308;SDS011;6217;48.150;17.142;2023-04-06T17:11:40;5.65;;;4.40;;
12308;SDS011;6217;48.150;17.142;2023-04-06T17:15:46;6.47;;;4.05;;
12308;SDS011;6217;48.150;17.142;2023-04-06T17:19:52;6.43;;;5.10;;
12308;SDS011;6217;48.150;17.142;2023-04-06T17:23:57;8.50;;;3.95;;
12308;SDS011;6217;48.150;17.142;2023-04-06T17:28:03;7.78;;;4.68;;
12308;SDS011;6217;48.150;17.142;2023-04-06T17:32:10;10.80;;;4.78;;
12308;SDS011;6217;48.150;17.142;2023-04-06T17:36:16;8.98;;;5.53;;
12308;SDS011;6217;48.150;17.142;2023-04-06T17:40:22;7.10;;;4.45;;
12308;SDS011;6217;48.150;17.142;2023-04-06T17:44:28;5.47;;;4.20;;
12308;SDS011;6217;48.150;17.142;2023-04-06T17:48:37;7.20;;;5.00;;
12308;SDS011;6217;48.150;17.142;2023-04-06T17:52:43;6.13;;;4.13;;
12308;SDS011;6217;48.150;17.142;2023-04-06T17:56:49;7.63;;;4.35;;
12308;SDS011;6217;48.150;17.142;2023-04-06T18:00:57;6.93;;;4.28;;
12308;SDS011;6217;48.150;17.142;2023-04-06T18:05:03;10.43;;;5.25;;
12308;SDS011;6217;48.150;17.142;2023-04-06T18:09:09;7.65;;;4.95;;
12308;SDS011;6217;48.150;17.142;2023-04-06T18:13:15;6.13;;;4.05;;
12308;SDS011;6217;48.150;17.142;2023-04-06T18:17:21;5.90;;;3.63;;
12308;SDS011;6217;48.150;17.142;2023-04-06T18:21:27;10.40;;;5.07;;
12308;SDS011;6217;48.150;17.142;2023-04-06T18:25:36;6.82;;;4.07;;
12308;SDS011;6217;48.150;17.142;2023-04-06T18:29:43;9.02;;;4.18;;
12308;SDS011;6217;48.150;17.142;2023-04-06T18:33:51;8.18;;;5.50;;
12308;SDS011;6217;48.150;17.142;2023-04-06T18:37:57;13.45;;;4.60;;
12308;SDS011;6217;48.150;17.142;2023-04-06T18:42:03;10.18;;;5.65;;
12308;SDS011;6217;48.150;17.142;2023-04-06T18:46:10;7.45;;;4.78;;
12308;SDS011;6217;48.150;17.142;2023-04-06T18:50:18;10.68;;;5.25;;
12308;SDS011;6217;48.150;17.142;2023-04-06T18:54:24;9.73;;;6.70;;
12308;SDS011;6217;48.150;17.142;2023-04-06T18:58:29;7.65;;;5.57;;
12308;SDS011;6217;48.150;17.142;2023-04-06T19:02:36;9.48;;;6.50;;
12308;SDS011;6217;48.150;17.142;2023-04-06T19:06:42;8.65;;;6.65;;
12308;SDS011;6217;48.150;17.142;2023-04-06T19:10:48;11.05;;;6.47;;
12308;SDS011;6217;48.150;17.142;2023-04-06T19:14:54;6.43;;;4.72;;
12308;SDS011;6217;48.150;17.142;2023-04-06T19:19:01;9.73;;;5.25;;
12308;SDS011;6217;48.150;17.142;2023-04-06T19:23:07;8.50;;;5.97;;
12308;SDS011;6217;48.150;17.142;2023-04-06T19:27:13;11.10;;;6.57;;
12308;SDS011;6217;48.150;17.142;2023-04-06T19:31:20;7.75;;;5.63;;
12308;SDS011;6217;48.150;17.142;2023-04-06T19:35:26;9.20;;;6.78;;
12308;SDS011;6217;48.150;17.142;2023-04-06T19:39:33;7.93;;;5.65;;
12308;SDS011;6217;48.150;17.142;2023-04-06T19:43:41;10.32;;;6.88;;
12308;SDS011;6217;48.150;17.142;2023-04-06T19:47:47;6.90;;;6.18;;
12308;SDS011;6217;48.150;17.142;2023-04-06T19:51:53;10.77;;;6.25;;
12308;SDS011;6217;48.150;17.142;2023-04-06T19:55:59;8.23;;;6.72;;
12308;SDS011;6217;48.150;17.142;2023-04-06T20:00:05;8.05;;;6.22;;
12308;SDS011;6217;48.150;17.142;2023-04-06T20:04:14;12.50;;;6.07;;
12308;SDS011;6217;48.150;17.142;2023-04-06T20:08:21;8.35;;;5.78;;
12308;SDS011;6217;48.150;17.142;2023-04-06T20:12:27;10.48;;;5.25;;
12308;SDS011;6217;48.150;17.142;2023-04-06T20:16:33;7.00;;;6.20;;
12308;SDS011;6217;48.150;17.142;2023-04-06T20:20:39;8.10;;;6.47;;
12308;SDS011;6217;48.150;17.142;2023-04-06T20:24:45;9.00;;;5.72;;
12308;SDS011;6217;48.150;17.142;2023-04-06T20:28:51;12.07;;;6.88;;
12308;SDS011;6217;48.150;17.142;2023-04-06T20:32:57;8.93;;;6.60;;
12308;SDS011;6217;48.150;17.142;2023-04-06T20:37:02;7.68;;;5.65;;
12308;SDS011;6217;48.150;17.142;2023-04-06T20:41:09;9.68;;;5.70;;
12308;SDS011;6217;48.150;17.142;2023-04-06T20:45:15;9.63;;;6.57;;
12308;SDS011;6217;48.150;17.142;2023-04-06T20:49:21;7.82;;;6.15;;
12308;SDS011;6217;48.150;17.142;2023-04-06T20:53:28;10.75;;;6.18;;
12308;SDS011;6217;48.150;17.142;2023-04-06T20:57:34;12.27;;;6.78;;
12308;SDS011;6217;48.150;17.142;2023-04-06T21:01:40;12.80;;;6.43;;
12308;SDS011;6217;48.150;17.142;2023-04-06T21:05:50;11.27;;;7.07;;
12308;SDS011;6217;48.150;17.142;2023-04-06T21:09:57;10.52;;;7.43;;
12308;SDS011;6217;48.150;17.142;2023-04-06T21:14:03;7.72;;;6.32;;
12308;SDS011;6217;48.150;17.142;2023-04-06T21:18:10;10.43;;;6.85;;
12308;SDS011;6217;48.150;17.142;2023-04-06T21:22:16;8.70;;;5.90;;
12308;SDS011;6217;48.150;17.142;2023-04-06T21:26:22;9.15;;;7.50;;
12308;SDS011;6217;48.150;17.142;2023-04-06T21:30:28;7.80;;;5.45;;
12308;SDS011;6217;48.150;17.142;2023-04-06T21:34:41;9.88;;;6.10;;
12308;SDS011;6217;48.150;17.142;2023-04-06T21:38:49;8.25;;;6.10;;
12308;SDS011;6217;48.150;17.142;2023-04-06T21:42:55;8.77;;;5.20;;
12308;SDS011;6217;48.150;17.142;2023-04-06T21:47:01;5.80;;;5.28;;
12308;SDS011;6217;48.150;17.142;2023-04-06T21:51:07;6.93;;;5.55;;
12308;SDS011;6217;48.150;17.142;2023-04-06T21:55:13;10.55;;;5.88;;
12308;SDS011;6217;48.150;17.142;2023-04-06T21:59:19;9.05;;;5.07;;
12308;SDS011;6217;48.150;17.142;2023-04-06T22:03:25;8.50;;;6.35;;
12308;SDS011;6217;48.150;17.142;2023-04-06T22:07:31;8.90;;;5.65;;
12308;SDS011;6217;48.150;17.142;2023-04-06T22:11:38;10.65;;;6.35;;
12308;SDS011;6217;48.150;17.142;2023-04-06T22:15:44;7.50;;;5.65;;
12308;SDS011;6217;48.150;17.142;2023-04-06T22:19:50;7.15;;;5.30;;
12308;SDS011;6217;48.150;17.142;2023-04-06T22:23:56;10.38;;;6.60;;
12308;SDS011;6217;48.150;17.142;2023-04-06T22:28:02;7.20;;;5.30;;
12308;SDS011;6217;48.150;17.142;2023-04-06T22:32:10;12.18;;;7.03;;
12308;SDS011;6217;48.150;17.142;2023-04-06T22:36:16;9.48;;;6.57;;
12308;SDS011;6217;48.150;17.142;2023-04-06T22:40:22;9.25;;;6.40;;
12308;SDS011;6217;48.150;17.142;2023-04-06T22:44:28;11.57;;;7.32;;
12308;SDS011;6217;48.150;17.142;2023-04-06T22:48:33;7.50;;;6.53;;
12308;SDS011;6217;48.150;17.142;2023-04-06T22:52:39;9.68;;;7.80;;
12308;SDS011;6217;48.150;17.142;2023-04-06T22:56:45;10.48;;;6.28;;
12308;SDS011;6217;48.150;17.142;2023-04-06T23:00:51;9.38;;;5.95;;
12308;SDS011;6217;48.150;17.142;2023-04-06T23:04:57;9.10;;;5.72;;
12308;SDS011;6217;48.150;17.142;2023-04-06T23:09:03;9.85;;;7.03;;
12308;SDS011;6217;48.150;17.142;2023-04-06T23:13:09;10.27;;;7.28;;
12308;SDS011;6217;48.150;17.142;2023-04-06T23:17:15;11.77;;;6.88;;
12308;SDS011;6217;48.150;17.142;2023-04-06T23:21:21;8.48;;;6.13;;
12308;SDS011;6217;48.150;17.142;2023-04-06T23:25:27;8.88;;;6.05;;
12308;SDS011;6217;48.150;17.142;2023-04-06T23:29:33;8.75;;;6.68;;
12308;SDS011;6217;48.150;17.142;2023-04-06T23:33:39;8.95;;;7.20;;
12308;SDS011;6217;48.150;17.142;2023-04-06T23:37:45;8.35;;;6.32;;
12308;SDS011;6217;48.150;17.142;2023-04-06T23:41:51;7.22;;;5.85;;
12308;SDS011;6217;48.150;17.142;2023-04-06T23:45:56;9.05;;;6.60;;
12308;SDS011;6217;48.150;17.142;2023-04-06T23:50:02;9.07;;;6.82;;
12308;SDS011;6217;48.150;17.142;2023-04-06T23:54:09;12.98;;;7.97;;
12308;SDS011;6217;48.150;17.142;2023-04-06T23:58:15;9.30;;;7.10;;
